sensor_id;sensor_type;location;lat;lon;timestamp;pressure;altitude;pressure_sealevel;temperature;humidity
5954;BME280;3002;42.642;24.812;2022-10-26T00:00:44;96722.78;;;20.50;62.18
5954;BME280;3002;42.642;24.812;2022-10-26T00:03:09;96735.28;;;20.51;62.81
5954;BME280;3002;42.642;24.812;2022-10-26T00:05:35;96735.72;;;20.65;62.21
5954;BME280;3002;42.642;24.812;2022-10-26T00:08:01;96734.56;;;20.66;62.68
5954;BME280;3002;42.642;24.812;2022-10-26T00:10:27;96726.13;;;20.07;64.54
5954;BME280;3002;42.642;24.812;2022-10-26T00:12:52;96736.09;;;20.27;64.76
5954;BME280;3002;42.642;24.812;2022-10-26T00:15:19;96741.56;;;20.02;65.23
5954;BME280;3002;42.642;24.812;2022-10-26T00:17:45;96734.53;;;19.65;67.77
5954;BME280;3002;42.642;24.812;2022-10-26T00:20:11;96741.97;;;19.43;68.53
5954;BME280;3002;42.642;24.812;2022-10-26T00:22:37;96745.41;;;19.65;67.96
5954;BME280;3002;42.642;24.812;2022-10-26T00:25:04;96742.13;;;19.84;67.19
5954;BME280;3002;42.642;24.812;2022-10-26T00:27:29;96747.66;;;19.50;68.10
5954;BME280;3002;42.642;24.812;2022-10-26T00:29:55;96751.56;;;19.29;68.94
5954;BME280;3002;42.642;24.812;2022-10-26T00:32:20;96758.03;;;19.48;67.90
5954;BME280;3002;42.642;24.812;2022-10-26T00:34:46;96746.28;;;19.57;67.72
5954;BME280;3002;42.642;24.812;2022-10-26T00:37:11;96746.94;;;19.53;68.22
5954;BME280;3002;42.642;24.812;2022-10-26T00:39:37;96748.44;;;19.51;68.78
5954;BME280;3002;42.642;24.812;2022-10-26T00:42:02;96738.97;;;18.91;71.38
5954;BME280;3002;42.642;24.812;2022-10-26T00:44:55;96746.97;;;19.08;72.01
5954;BME280;3002;42.642;24.812;2022-10-26T00:47:52;96752.53;;;19.57;69.58
5954;BME280;3002;42.642;24.812;2022-10-26T00:50:43;96740.97;;;19.60;68.75
5954;BME280;3002;42.642;24.812;2022-10-26T00:53:09;96729.44;;;19.63;68.16
5954;BME280;3002;42.642;24.812;2022-10-26T00:55:38;96747.66;;;19.50;68.92
5954;BME280;3002;42.642;24.812;2022-10-26T00:58:06;96733.25;;;19.50;68.14
5954;BME280;3002;42.642;24.812;2022-10-26T01:00:32;96723.44;;;19.24;68.50
5954;BME280;3002;42.642;24.812;2022-10-26T01:03:00;96735.41;;;19.57;67.80
5954;BME280;3002;42.642;24.812;2022-10-26T01:05:27;96725.53;;;19.40;67.58
5954;BME280;3002;42.642;24.812;2022-10-26T01:07:54;96723.25;;;19.54;66.44
5954;BME280;3002;42.642;24.812;2022-10-26T01:10:20;96719.56;;;19.95;63.63
5954;BME280;3002;42.642;24.812;2022-10-26T01:12:46;96708.88;;;20.67;60.02
5954;BME280;3002;42.642;24.812;2022-10-26T01:15:12;96712.47;;;21.11;58.29
5954;BME280;3002;42.642;24.812;2022-10-26T01:17:43;96709.78;;;21.43;57.01
5954;BME280;3002;42.642;24.812;2022-10-26T01:27:59;96713.41;;;21.79;55.72
5954;BME280;3002;42.642;24.812;2022-10-26T01:30:38;96715.59;;;21.57;56.35
5954;BME280;3002;42.642;24.812;2022-10-26T01:38:21;96715.16;;;21.87;55.02
5954;BME280;3002;42.642;24.812;2022-10-26T01:43:19;96702.75;;;21.58;55.87
5954;BME280;3002;42.642;24.812;2022-10-26T01:45:46;96712.94;;;21.45;56.10
5954;BME280;3002;42.642;24.812;2022-10-26T01:48:15;96710.94;;;21.58;55.90
5954;BME280;3002;42.642;24.812;2022-10-26T01:50:44;96709.00;;;21.43;55.59
5954;BME280;3002;42.642;24.812;2022-10-26T01:53:12;96717.19;;;21.58;54.98
5954;BME280;3002;42.642;24.812;2022-10-26T01:55:43;96712.88;;;21.57;55.25
5954;BME280;3002;42.642;24.812;2022-10-26T02:01:05;96708.09;;;20.95;57.06
5954;BME280;3002;42.642;24.812;2022-10-26T02:17:57;96699.75;;;21.31;55.17
5954;BME280;3002;42.642;24.812;2022-10-26T02:20:32;96695.25;;;21.39;54.54
5954;BME280;3002;42.642;24.812;2022-10-26T02:23:01;96702.59;;;21.07;55.66
5954;BME280;3002;42.642;24.812;2022-10-26T02:25:32;96707.78;;;21.56;54.37
5954;BME280;3002;42.642;24.812;2022-10-26T02:28:04;96698.16;;;21.62;53.98
5954;BME280;3002;42.642;24.812;2022-10-26T02:30:32;96699.41;;;21.49;54.11
5954;BME280;3002;42.642;24.812;2022-10-26T02:32:59;96695.34;;;21.43;54.20
5954;BME280;3002;42.642;24.812;2022-10-26T02:35:30;96698.06;;;21.74;53.72
5954;BME280;3002;42.642;24.812;2022-10-26T02:37:59;96685.66;;;21.45;54.22
5954;BME280;3002;42.642;24.812;2022-10-26T02:40:27;96692.78;;;21.34;54.99
5954;BME280;3002;42.642;24.812;2022-10-26T02:42:54;96692.59;;;20.83;57.00
5954;BME280;3002;42.642;24.812;2022-10-26T02:45:25;96688.72;;;20.44;57.78
5954;BME280;3002;42.642;24.812;2022-10-26T02:47:52;96697.44;;;20.90;55.70
5954;BME280;3002;42.642;24.812;2022-10-26T02:50:25;96705.19;;;20.88;55.91
5954;BME280;3002;42.642;24.812;2022-10-26T02:55:45;96707.81;;;21.28;53.27
5954;BME280;3002;42.642;24.812;2022-10-26T02:58:19;96720.19;;;21.69;51.62
5954;BME280;3002;42.642;24.812;2022-10-26T03:00:48;96726.50;;;21.57;51.92
5954;BME280;3002;42.642;24.812;2022-10-26T03:03:15;96731.38;;;21.48;51.17
5954;BME280;3002;42.642;24.812;2022-10-26T03:05:41;96732.34;;;21.28;50.97
5954;BME280;3002;42.642;24.812;2022-10-26T03:08:07;96733.19;;;21.44;49.63
5954;BME280;3002;42.642;24.812;2022-10-26T03:10:38;96730.28;;;21.37;48.63
5954;BME280;3002;42.642;24.812;2022-10-26T03:13:04;96737.16;;;21.62;48.28
5954;BME280;3002;42.642;24.812;2022-10-26T03:15:30;96739.53;;;21.64;47.52
5954;BME280;3002;42.642;24.812;2022-10-26T03:17:55;96738.66;;;21.76;47.64
5954;BME280;3002;42.642;24.812;2022-10-26T03:20:20;96750.38;;;21.76;47.29
5954;BME280;3002;42.642;24.812;2022-10-26T03:22:46;96747.91;;;21.87;47.42
5954;BME280;3002;42.642;24.812;2022-10-26T03:25:12;96743.53;;;21.67;47.27
5954;BME280;3002;42.642;24.812;2022-10-26T03:27:40;96761.13;;;21.69;47.50
5954;BME280;3002;42.642;24.812;2022-10-26T03:30:06;96758.72;;;21.36;48.78
5954;BME280;3002;42.642;24.812;2022-10-26T03:32:32;96759.63;;;21.28;48.10
5954;BME280;3002;42.642;24.812;2022-10-26T03:34:57;96751.94;;;21.30;48.39
5954;BME280;3002;42.642;24.812;2022-10-26T03:37:23;96770.47;;;21.24;48.73
5954;BME280;3002;42.642;24.812;2022-10-26T03:39:49;96749.50;;;21.28;48.98
5954;BME280;3002;42.642;24.812;2022-10-26T03:42:14;96766.13;;;21.35;48.68
5954;BME280;3002;42.642;24.812;2022-10-26T03:44:40;96762.34;;;21.12;48.01
5954;BME280;3002;42.642;24.812;2022-10-26T03:47:05;96751.13;;;21.01;48.39
5954;BME280;3002;42.642;24.812;2022-10-26T03:49:31;96753.88;;;21.29;47.28
5954;BME280;3002;42.642;24.812;2022-10-26T03:51:56;96757.50;;;21.21;46.72
5954;BME280;3002;42.642;24.812;2022-10-26T03:54:22;96767.72;;;21.24;46.55
5954;BME280;3002;42.642;24.812;2022-10-26T03:56:47;96750.19;;;21.09;47.52
5954;BME280;3002;42.642;24.812;2022-10-26T03:59:13;96759.38;;;21.05;46.75
5954;BME280;3002;42.642;24.812;2022-10-26T04:01:38;96750.34;;;21.01;46.62
5954;BME280;3002;42.642;24.812;2022-10-26T04:04:04;96760.84;;;21.15;46.25
5954;BME280;3002;42.642;24.812;2022-10-26T04:06:30;96754.41;;;21.07;46.34
5954;BME280;3002;42.642;24.812;2022-10-26T04:08:55;96772.59;;;21.03;46.16
5954;BME280;3002;42.642;24.812;2022-10-26T04:11:29;96776.59;;;21.21;44.85
5954;BME280;3002;42.642;24.812;2022-10-26T04:13:54;96761.63;;;21.59;44.01
5954;BME280;3002;42.642;24.812;2022-10-26T04:16:20;96765.09;;;21.72;44.07
5954;BME280;3002;42.642;24.812;2022-10-26T04:18:46;96773.97;;;21.25;44.38
5954;BME280;3002;42.642;24.812;2022-10-26T04:21:12;96774.84;;;21.57;43.46
5954;BME280;3002;42.642;24.812;2022-10-26T04:23:37;96776.72;;;21.69;43.21
5954;BME280;3002;42.642;24.812;2022-10-26T04:26:06;96777.78;;;21.80;41.64
5954;BME280;3002;42.642;24.812;2022-10-26T04:28:31;96761.47;;;21.99;41.59
5954;BME280;3002;42.642;24.812;2022-10-26T04:30:57;96778.47;;;21.77;42.57
5954;BME280;3002;42.642;24.812;2022-10-26T04:33:22;96771.50;;;21.48;42.56
5954;BME280;3002;42.642;24.812;2022-10-26T04:35:48;96777.84;;;21.68;42.44
5954;BME280;3002;42.642;24.812;2022-10-26T04:38:13;96781.63;;;21.63;44.22
5954;BME280;3002;42.642;24.812;2022-10-26T04:40:39;96776.31;;;21.38;46.07
5954;BME280;3002;42.642;24.812;2022-10-26T04:43:04;96782.47;;;21.07;46.71
5954;BME280;3002;42.642;24.812;2022-10-26T04:45:30;96780.56;;;20.96;46.28
5954;BME280;3002;42.642;24.812;2022-10-26T04:48:03;96783.00;;;21.13;46.91
5954;BME280;3002;42.642;24.812;2022-10-26T04:50:29;96785.03;;;20.88;46.44
5954;BME280;3002;42.642;24.812;2022-10-26T04:52:54;96787.91;;;21.07;45.04
5954;BME280;3002;42.642;24.812;2022-10-26T04:55:20;96799.41;;;21.41;44.16
5954;BME280;3002;42.642;24.812;2022-10-26T04:57:45;96789.88;;;21.51;44.19
5954;BME280;3002;42.642;24.812;2022-10-26T05:00:11;96800.50;;;21.40;44.69
5954;BME280;3002;42.642;24.812;2022-10-26T05:02:37;96796.69;;;21.29;43.96
5954;BME280;3002;42.642;24.812;2022-10-26T05:05:03;96784.31;;;21.31;44.38
5954;BME280;3002;42.642;24.812;2022-10-26T05:07:28;96806.56;;;21.61;43.52
5954;BME280;3002;42.642;24.812;2022-10-26T05:09:54;96799.03;;;21.43;43.86
5954;BME280;3002;42.642;24.812;2022-10-26T05:12:19;96804.19;;;21.60;43.34
5954;BME280;3002;42.642;24.812;2022-10-26T05:14:44;96805.50;;;21.82;42.83
5954;BME280;3002;42.642;24.812;2022-10-26T05:17:10;96802.69;;;21.78;42.48
5954;BME280;3002;42.642;24.812;2022-10-26T05:19:36;96819.84;;;21.47;43.97
5954;BME280;3002;42.642;24.812;2022-10-26T05:22:01;96809.31;;;21.33;44.59
5954;BME280;3002;42.642;24.812;2022-10-26T05:24:27;96801.44;;;21.60;43.50
5954;BME280;3002;42.642;24.812;2022-10-26T05:26:52;96816.31;;;21.62;43.81
5954;BME280;3002;42.642;24.812;2022-10-26T05:29:18;96820.59;;;22.74;42.10
5954;BME280;3002;42.642;24.812;2022-10-26T05:31:43;96800.66;;;24.39;37.63
5954;BME280;3002;42.642;24.812;2022-10-26T05:34:08;96811.50;;;26.82;33.83
5954;BME280;3002;42.642;24.812;2022-10-26T05:36:34;96814.66;;;26.87;32.89
5954;BME280;3002;42.642;24.812;2022-10-26T05:38:59;96806.22;;;27.28;32.95
5954;BME280;3002;42.642;24.812;2022-10-26T05:41:25;96820.31;;;26.50;36.12
5954;BME280;3002;42.642;24.812;2022-10-26T05:43:51;96812.78;;;25.58;38.83
5954;BME280;3002;42.642;24.812;2022-10-26T05:46:16;96831.66;;;25.97;39.17
5954;BME280;3002;42.642;24.812;2022-10-26T05:48:42;96834.66;;;27.61;37.07
5954;BME280;3002;42.642;24.812;2022-10-26T05:51:07;96836.63;;;29.21;34.68
5954;BME280;3002;42.642;24.812;2022-10-26T05:53:32;96849.13;;;27.33;37.89
5954;BME280;3002;42.642;24.812;2022-10-26T05:55:58;96843.69;;;27.47;37.33
5954;BME280;3002;42.642;24.812;2022-10-26T05:58:24;96845.38;;;27.94;36.92
5954;BME280;3002;42.642;24.812;2022-10-26T06:06:21;96857.88;;;26.87;38.38
5954;BME280;3002;42.642;24.812;2022-10-26T06:08:47;96859.06;;;25.90;40.77
5954;BME280;3002;42.642;24.812;2022-10-26T06:11:12;96856.81;;;26.03;40.28
5954;BME280;3002;42.642;24.812;2022-10-26T06:13:38;96858.41;;;28.87;36.43
5954;BME280;3002;42.642;24.812;2022-10-26T06:24:06;96873.75;;;30.07;33.63
5954;BME280;3002;42.642;24.812;2022-10-26T06:27:02;96873.50;;;31.33;32.45
5954;BME280;3002;42.642;24.812;2022-10-26T06:32:08;96875.03;;;27.21;37.76
5954;BME280;3002;42.642;24.812;2022-10-26T06:34:35;96878.91;;;28.78;35.31
5954;BME280;3002;42.642;24.812;2022-10-26T06:37:02;96885.09;;;30.79;33.42
5954;BME280;3002;42.642;24.812;2022-10-26T06:39:30;96882.66;;;32.21;30.48
5954;BME280;3002;42.642;24.812;2022-10-26T06:41:59;96878.53;;;31.72;31.43
5954;BME280;3002;42.642;24.812;2022-10-26T06:44:26;96896.72;;;31.80;31.53
5954;BME280;3002;42.642;24.812;2022-10-26T06:54:50;96909.72;;;31.83;31.45
5954;BME280;3002;42.642;24.812;2022-10-26T06:57:18;96911.34;;;31.05;31.85
5954;BME280;3002;42.642;24.812;2022-10-26T06:59:45;96910.09;;;29.04;34.81
5954;BME280;3002;42.642;24.812;2022-10-26T07:02:12;96906.50;;;29.21;35.33
5954;BME280;3002;42.642;24.812;2022-10-26T07:04:39;96915.59;;;28.36;35.40
5954;BME280;3002;42.642;24.812;2022-10-26T07:07:05;96912.75;;;25.84;38.53
5954;BME280;3002;42.642;24.812;2022-10-26T07:09:30;96911.91;;;27.79;36.72
5954;BME280;3002;42.642;24.812;2022-10-26T07:11:56;96916.00;;;29.06;34.05
5954;BME280;3002;42.642;24.812;2022-10-26T07:14:21;96918.78;;;28.74;34.44
5954;BME280;3002;42.642;24.812;2022-10-26T07:16:47;96925.88;;;28.57;34.26
5954;BME280;3002;42.642;24.812;2022-10-26T07:19:12;96918.59;;;29.67;33.45
5954;BME280;3002;42.642;24.812;2022-10-26T07:21:37;96922.34;;;30.68;31.79
5954;BME280;3002;42.642;24.812;2022-10-26T07:24:03;96922.00;;;29.99;32.29
5954;BME280;3002;42.642;24.812;2022-10-26T07:26:29;96923.19;;;31.51;30.99
5954;BME280;3002;42.642;24.812;2022-10-26T07:28:54;96923.72;;;30.94;31.32
5954;BME280;3002;42.642;24.812;2022-10-26T07:31:19;96921.88;;;31.21;30.84
5954;BME280;3002;42.642;24.812;2022-10-26T07:33:45;96911.03;;;31.71;29.91
5954;BME280;3002;42.642;24.812;2022-10-26T07:36:11;96916.25;;;30.90;30.73
5954;BME280;3002;42.642;24.812;2022-10-26T07:38:37;96920.28;;;30.27;30.78
5954;BME280;3002;42.642;24.812;2022-10-26T07:41:03;96912.81;;;29.22;32.40
5954;BME280;3002;42.642;24.812;2022-10-26T07:43:29;96921.91;;;28.65;33.39
5954;BME280;3002;42.642;24.812;2022-10-26T07:45:55;96921.94;;;31.89;29.75
5954;BME280;3002;42.642;24.812;2022-10-26T07:48:20;96920.75;;;33.62;28.00
5954;BME280;3002;42.642;24.812;2022-10-26T07:50:45;96932.06;;;32.34;28.97
5954;BME280;3002;42.642;24.812;2022-10-26T07:53:11;96921.31;;;31.40;29.08
5954;BME280;3002;42.642;24.812;2022-10-26T07:55:37;96914.44;;;31.86;27.68
5954;BME280;3002;42.642;24.812;2022-10-26T07:58:02;96921.88;;;31.59;28.59
5954;BME280;3002;42.642;24.812;2022-10-26T08:00:28;96924.72;;;32.47;27.98
5954;BME280;3002;42.642;24.812;2022-10-26T08:02:54;96921.94;;;34.00;26.71
5954;BME280;3002;42.642;24.812;2022-10-26T08:05:20;96919.19;;;33.61;25.92
5954;BME280;3002;42.642;24.812;2022-10-26T08:07:46;96919.97;;;34.01;25.82
5954;BME280;3002;42.642;24.812;2022-10-26T08:10:13;96921.28;;;33.10;25.48
5954;BME280;3002;42.642;24.812;2022-10-26T08:12:39;96922.91;;;32.33;26.50
5954;BME280;3002;42.642;24.812;2022-10-26T08:15:05;96915.31;;;32.10;27.33
5954;BME280;3002;42.642;24.812;2022-10-26T08:17:30;96918.41;;;33.60;26.68
5954;BME280;3002;42.642;24.812;2022-10-26T08:19:56;96910.13;;;35.43;25.31
5954;BME280;3002;42.642;24.812;2022-10-26T08:22:21;96910.69;;;33.68;25.58
5954;BME280;3002;42.642;24.812;2022-10-26T08:24:47;96906.81;;;29.52;28.59
5954;BME280;3002;42.642;24.812;2022-10-26T08:27:13;96904.75;;;31.67;27.42
5954;BME280;3002;42.642;24.812;2022-10-26T08:29:39;96898.91;;;32.19;26.86
5954;BME280;3002;42.642;24.812;2022-10-26T08:32:05;96914.84;;;34.52;24.99
5954;BME280;3002;42.642;24.812;2022-10-26T08:34:31;96915.94;;;34.38;24.82
5954;BME280;3002;42.642;24.812;2022-10-26T08:36:56;96915.00;;;34.77;23.99
5954;BME280;3002;42.642;24.812;2022-10-26T08:39:23;96914.22;;;35.09;23.78
5954;BME280;3002;42.642;24.812;2022-10-26T08:41:51;96917.00;;;35.38;24.30
5954;BME280;3002;42.642;24.812;2022-10-26T08:44:41;96917.13;;;35.35;23.72
5954;BME280;3002;42.642;24.812;2022-10-26T08:47:44;96908.75;;;35.93;23.40
5954;BME280;3002;42.642;24.812;2022-10-26T08:50:19;96911.41;;;33.72;24.35
5954;BME280;3002;42.642;24.812;2022-10-26T08:55:24;96914.59;;;32.33;25.67
5954;BME280;3002;42.642;24.812;2022-10-26T08:57:52;96911.97;;;31.27;27.27
5954;BME280;3002;42.642;24.812;2022-10-26T09:00:20;96918.22;;;29.61;28.61
5954;BME280;3002;42.642;24.812;2022-10-26T09:02:50;96918.09;;;32.10;26.83
5954;BME280;3002;42.642;24.812;2022-10-26T09:05:42;96911.06;;;30.96;26.91
5954;BME280;3002;42.642;24.812;2022-10-26T09:08:20;96905.38;;;31.82;26.72
5954;BME280;3002;42.642;24.812;2022-10-26T09:11:20;96917.16;;;33.81;24.74
5954;BME280;3002;42.642;24.812;2022-10-26T09:14:11;96919.34;;;32.33;25.93
5954;BME280;3002;42.642;24.812;2022-10-26T09:17:06;96909.75;;;33.54;24.44
5954;BME280;3002;42.642;24.812;2022-10-26T09:22:37;96912.88;;;34.32;23.57
5954;BME280;3002;42.642;24.812;2022-10-26T09:25:28;96905.25;;;33.80;23.95
5954;BME280;3002;42.642;24.812;2022-10-26T09:28:02;96906.78;;;33.65;24.38
5954;BME280;3002;42.642;24.812;2022-10-26T09:30:29;96909.03;;;35.24;23.13
5954;BME280;3002;42.642;24.812;2022-10-26T09:33:13;96904.19;;;35.41;23.36
5954;BME280;3002;42.642;24.812;2022-10-26T09:38:36;96907.03;;;33.51;24.05
5954;BME280;3002;42.642;24.812;2022-10-26T09:41:39;96909.25;;;34.84;22.94
5954;BME280;3002;42.642;24.812;2022-10-26T09:44:16;96910.72;;;36.82;21.76
5954;BME280;3002;42.642;24.812;2022-10-26T09:47:03;96903.91;;;37.43;20.68
5954;BME280;3002;42.642;24.812;2022-10-26T09:49:37;96901.00;;;36.86;21.14
5954;BME280;3002;42.642;24.812;2022-10-26T09:52:06;96895.16;;;35.66;21.82
5954;BME280;3002;42.642;24.812;2022-10-26T09:54:31;96901.38;;;36.63;21.64
5954;BME280;3002;42.642;24.812;2022-10-26T09:56:58;96896.59;;;36.25;21.60
5954;BME280;3002;42.642;24.812;2022-10-26T09:59:26;96905.00;;;32.11;24.88
5954;BME280;3002;42.642;24.812;2022-10-26T10:01:54;96895.91;;;30.11;27.44
5954;BME280;3002;42.642;24.812;2022-10-26T10:04:21;96902.25;;;32.61;24.89
5954;BME280;3002;42.642;24.812;2022-10-26T10:07:12;96896.16;;;31.58;25.21
5954;BME280;3002;42.642;24.812;2022-10-26T10:09:39;96889.16;;;33.72;24.04
5954;BME280;3002;42.642;24.812;2022-10-26T10:12:05;96892.00;;;35.51;21.97
5954;BME280;3002;42.642;24.812;2022-10-26T10:14:54;96895.00;;;37.22;21.53
5954;BME280;3002;42.642;24.812;2022-10-26T10:17:22;96896.34;;;32.05;25.67
5954;BME280;3002;42.642;24.812;2022-10-26T10:19:48;96890.81;;;33.06;24.01
5954;BME280;3002;42.642;24.812;2022-10-26T10:24:41;96881.63;;;34.08;23.52
5954;BME280;3002;42.642;24.812;2022-10-26T10:29:54;96876.41;;;34.92;22.41
5954;BME280;3002;42.642;24.812;2022-10-26T10:32:24;96881.28;;;34.23;23.23
5954;BME280;3002;42.642;24.812;2022-10-26T10:34:55;96882.38;;;34.45;23.17
5954;BME280;3002;42.642;24.812;2022-10-26T10:39:58;96875.72;;;34.88;22.16
5954;BME280;3002;42.642;24.812;2022-10-26T10:42:45;96875.22;;;33.32;23.96
5954;BME280;3002;42.642;24.812;2022-10-26T10:45:22;96869.56;;;34.31;22.78
5954;BME280;3002;42.642;24.812;2022-10-26T10:48:24;96873.13;;;34.48;22.58
5954;BME280;3002;42.642;24.812;2022-10-26T10:50:58;96872.88;;;35.21;21.22
5954;BME280;3002;42.642;24.812;2022-10-26T11:08:08;96872.69;;;34.66;22.31
5954;BME280;3002;42.642;24.812;2022-10-26T11:10:43;96868.78;;;36.47;20.26
5954;BME280;3002;42.642;24.812;2022-10-26T11:13:19;96853.00;;;34.24;21.86
5954;BME280;3002;42.642;24.812;2022-10-26T11:15:48;96854.25;;;37.00;20.19
5954;BME280;3002;42.642;24.812;2022-10-26T11:18:23;96862.16;;;36.15;20.68
5954;BME280;3002;42.642;24.812;2022-10-26T11:20:59;96853.69;;;34.28;22.43
5954;BME280;3002;42.642;24.812;2022-10-26T11:23:38;96849.16;;;34.02;22.81
5954;BME280;3002;42.642;24.812;2022-10-26T11:26:14;96848.94;;;37.14;20.15
5954;BME280;3002;42.642;24.812;2022-10-26T11:31:38;96843.50;;;38.57;19.05
5954;BME280;3002;42.642;24.812;2022-10-26T11:36:38;96849.31;;;37.91;18.40
5954;BME280;3002;42.642;24.812;2022-10-26T11:41:39;96847.81;;;34.59;21.45
5954;BME280;3002;42.642;24.812;2022-10-26T11:44:18;96847.78;;;36.30;20.93
5954;BME280;3002;42.642;24.812;2022-10-26T11:47:01;96852.25;;;37.66;19.19
5954;BME280;3002;42.642;24.812;2022-10-26T11:49:37;96846.88;;;37.49;19.85
5954;BME280;3002;42.642;24.812;2022-10-26T11:52:16;96842.56;;;38.51;17.67
5954;BME280;3002;42.642;24.812;2022-10-26T11:54:47;96845.59;;;38.75;17.21
5954;BME280;3002;42.642;24.812;2022-10-26T11:57:16;96841.38;;;38.79;18.02
5954;BME280;3002;42.642;24.812;2022-10-26T11:59:52;96828.50;;;40.31;17.85
5954;BME280;3002;42.642;24.812;2022-10-26T12:02:20;96834.75;;;38.46;18.03
5954;BME280;3002;42.642;24.812;2022-10-26T12:05:04;96834.03;;;37.17;19.01
5954;BME280;3002;42.642;24.812;2022-10-26T12:07:35;96824.66;;;38.58;17.95
5954;BME280;3002;42.642;24.812;2022-10-26T12:10:03;96825.22;;;38.34;18.20
5954;BME280;3002;42.642;24.812;2022-10-26T12:12:45;96837.53;;;38.37;18.28
5954;BME280;3002;42.642;24.812;2022-10-26T12:18:25;96840.13;;;39.54;17.29
5954;BME280;3002;42.642;24.812;2022-10-26T12:21:02;96827.38;;;39.25;17.42
5954;BME280;3002;42.642;24.812;2022-10-26T12:23:55;96827.00;;;38.10;18.53
5954;BME280;3002;42.642;24.812;2022-10-26T12:34:14;96828.13;;;35.11;21.34
5954;BME280;3002;42.642;24.812;2022-10-26T12:39:37;96836.31;;;37.32;19.05
5954;BME280;3002;42.642;24.812;2022-10-26T12:47:03;96826.72;;;35.32;20.61
5954;BME280;3002;42.642;24.812;2022-10-26T12:52:40;96834.84;;;34.20;22.70
5954;BME280;3002;42.642;24.812;2022-10-26T12:58:01;96836.25;;;34.90;21.15
5954;BME280;3002;42.642;24.812;2022-10-26T13:00:28;96832.44;;;35.83;21.56
5954;BME280;3002;42.642;24.812;2022-10-26T13:08:10;96834.47;;;33.45;23.89
5954;BME280;3002;42.642;24.812;2022-10-26T13:10:43;96835.69;;;35.40;22.15
5954;BME280;3002;42.642;24.812;2022-10-26T13:13:22;96840.06;;;36.81;20.91
5954;BME280;3002;42.642;24.812;2022-10-26T13:15:55;96841.53;;;37.42;20.23
5954;BME280;3002;42.642;24.812;2022-10-26T13:18:21;96842.88;;;36.81;20.65
5954;BME280;3002;42.642;24.812;2022-10-26T13:21:08;96844.13;;;37.15;20.65
5954;BME280;3002;42.642;24.812;2022-10-26T13:23:40;96841.56;;;35.29;22.37
5954;BME280;3002;42.642;24.812;2022-10-26T13:26:27;96844.22;;;34.10;23.52
5954;BME280;3002;42.642;24.812;2022-10-26T13:29:01;96841.38;;;35.78;21.93
5954;BME280;3002;42.642;24.812;2022-10-26T13:36:43;96848.00;;;34.52;23.12
5954;BME280;3002;42.642;24.812;2022-10-26T13:39:25;96847.53;;;36.37;21.62
5954;BME280;3002;42.642;24.812;2022-10-26T13:41:53;96851.81;;;33.53;23.20
5954;BME280;3002;42.642;24.812;2022-10-26T13:47:03;96847.88;;;38.67;19.06
5954;BME280;3002;42.642;24.812;2022-10-26T13:49:43;96854.38;;;36.23;21.08
5954;BME280;3002;42.642;24.812;2022-10-26T13:52:19;96855.06;;;37.88;20.04
5954;BME280;3002;42.642;24.812;2022-10-26T13:54:57;96848.56;;;38.00;19.61
5954;BME280;3002;42.642;24.812;2022-10-26T13:57:32;96847.06;;;35.33;21.69
5954;BME280;3002;42.642;24.812;2022-10-26T14:00:07;96855.88;;;37.44;20.41
5954;BME280;3002;42.642;24.812;2022-10-26T14:02:33;96854.16;;;37.47;20.22
5954;BME280;3002;42.642;24.812;2022-10-26T14:05:00;96857.00;;;39.26;19.46
5954;BME280;3002;42.642;24.812;2022-10-26T14:07:40;96860.13;;;37.14;20.09
5954;BME280;3002;42.642;24.812;2022-10-26T14:10:23;96865.00;;;37.01;20.37
5954;BME280;3002;42.642;24.812;2022-10-26T14:12:50;96857.81;;;36.65;20.97
5954;BME280;3002;42.642;24.812;2022-10-26T14:15:18;96862.00;;;36.95;20.98
5954;BME280;3002;42.642;24.812;2022-10-26T14:17:51;96854.72;;;35.45;22.08
5954;BME280;3002;42.642;24.812;2022-10-26T14:20:19;96865.19;;;35.25;22.64
5954;BME280;3002;42.642;24.812;2022-10-26T14:22:45;96852.88;;;33.59;23.59
5954;BME280;3002;42.642;24.812;2022-10-26T14:25:19;96859.38;;;34.74;22.89
5954;BME280;3002;42.642;24.812;2022-10-26T14:27:44;96867.13;;;34.99;23.13
5954;BME280;3002;42.642;24.812;2022-10-26T14:32:49;96880.09;;;34.73;22.66
5954;BME280;3002;42.642;24.812;2022-10-26T14:35:16;96863.88;;;34.84;23.03
5954;BME280;3002;42.642;24.812;2022-10-26T14:38:01;96871.16;;;33.17;23.65
5954;BME280;3002;42.642;24.812;2022-10-26T14:40:30;96865.84;;;33.02;24.62
5954;BME280;3002;42.642;24.812;2022-10-26T14:42:59;96880.78;;;33.12;23.97
5954;BME280;3002;42.642;24.812;2022-10-26T14:47:51;96883.16;;;33.10;24.43
5954;BME280;3002;42.642;24.812;2022-10-26T14:50:23;96889.78;;;33.40;25.92
5954;BME280;3002;42.642;24.812;2022-10-26T14:53:03;96882.38;;;32.86;25.92
5954;BME280;3002;42.642;24.812;2022-10-26T14:55:30;96903.19;;;32.78;27.25
5954;BME280;3002;42.642;24.812;2022-10-26T14:58:17;96898.53;;;31.90;27.15
5954;BME280;3002;42.642;24.812;2022-10-26T15:00:44;96899.28;;;29.63;30.52
5954;BME280;3002;42.642;24.812;2022-10-26T15:03:15;96892.91;;;29.73;30.55
5954;BME280;3002;42.642;24.812;2022-10-26T15:05:45;96891.53;;;29.01;29.77
5954;BME280;3002;42.642;24.812;2022-10-26T15:08:45;96908.91;;;28.73;31.13
5954;BME280;3002;42.642;24.812;2022-10-26T15:11:15;96920.28;;;28.14;33.00
5954;BME280;3002;42.642;24.812;2022-10-26T15:13:41;96910.94;;;27.42;31.94
5954;BME280;3002;42.642;24.812;2022-10-26T15:16:20;96914.91;;;27.48;31.32
5954;BME280;3002;42.642;24.812;2022-10-26T15:18:48;96915.47;;;26.18;31.91
5954;BME280;3002;42.642;24.812;2022-10-26T15:23:50;96922.41;;;26.89;31.64
5954;BME280;3002;42.642;24.812;2022-10-26T15:26:17;96934.03;;;26.68;32.63
5954;BME280;3002;42.642;24.812;2022-10-26T15:28:42;96935.53;;;25.84;35.33
5954;BME280;3002;42.642;24.812;2022-10-26T15:33:40;96943.09;;;25.61;36.91
5954;BME280;3002;42.642;24.812;2022-10-26T15:36:19;96954.13;;;25.65;36.89
5954;BME280;3002;42.642;24.812;2022-10-26T15:38:46;96958.13;;;25.71;38.02
5954;BME280;3002;42.642;24.812;2022-10-26T15:41:29;96963.66;;;25.44;38.76
5954;BME280;3002;42.642;24.812;2022-10-26T15:43:58;96962.66;;;25.03;39.37
5954;BME280;3002;42.642;24.812;2022-10-26T15:46:29;96971.88;;;24.91;40.28
5954;BME280;3002;42.642;24.812;2022-10-26T15:48:57;96973.09;;;24.71;39.86
5954;BME280;3002;42.642;24.812;2022-10-26T15:51:24;96976.00;;;24.55;40.32